createdAt,value
2017-12-19T00:03:46.200Z,3.97
2017-12-19T00:13:46.159Z,4.04
2017-12-19T00:23:46.216Z,4.07
2017-12-19T00:33:46.173Z,3.98
2017-12-19T00:43:46.283Z,4.06
2017-12-19T00:53:46.181Z,4.03
2017-12-19T01:03:46.217Z,3.89
2017-12-19T01:13:46.396Z,3.92
2017-12-19T01:23:46.392Z,4.04
2017-12-19T01:33:46.247Z,4.06
2017-12-19T01:43:46.317Z,3.92
2017-12-19T01:53:46.231Z,4.03
2017-12-19T02:03:46.226Z,4.16
2017-12-19T02:13:46.267Z,4.04
2017-12-19T02:23:46.236Z,4.08
2017-12-19T02:33:46.283Z,4.01
2017-12-19T02:43:46.247Z,4.01
2017-12-19T02:53:46.329Z,4.07
2017-12-19T03:03:46.283Z,3.98
2017-12-19T03:13:46.345Z,4.06
2017-12-19T03:23:46.324Z,4.03
2017-12-19T03:33:46.379Z,4.07
2017-12-19T03:43:46.347Z,3.97
2017-12-19T03:53:46.286Z,3.98
2017-12-19T04:03:46.372Z,3.96
2017-12-19T04:13:46.336Z,4.01
2017-12-19T04:23:46.379Z,4.04
2017-12-19T04:33:46.313Z,4.03
2017-12-19T04:43:46.432Z,4.14
2017-12-19T04:53:46.388Z,4
2017-12-19T05:03:46.443Z,3.96
2017-12-19T05:13:46.371Z,4.16
2017-12-19T05:23:46.444Z,4.15
2017-12-19T05:33:46.415Z,4.21
2017-12-19T05:43:46.499Z,4.1
2017-12-19T05:53:46.438Z,4.34
2017-12-19T06:03:46.381Z,4.26
2017-12-19T06:13:46.459Z,4.32
2017-12-19T06:23:46.393Z,4.1
2017-12-19T06:33:46.474Z,4.19
2017-12-19T06:43:46.418Z,4.42
2017-12-19T06:53:46.551Z,4.29
2017-12-19T07:03:46.488Z,4.44
2017-12-19T07:13:46.532Z,4.43
2017-12-19T07:23:46.502Z,4.52
2017-12-19T07:33:46.544Z,4.54
2017-12-19T07:43:46.531Z,4.52
2017-12-19T07:53:46.589Z,4.44
2017-12-19T08:03:46.557Z,4.52
2017-12-19T08:13:46.491Z,4.5
2017-12-19T08:23:46.599Z,4.67
2017-12-19T08:33:46.497Z,4.73
2017-12-19T08:43:46.597Z,4.88
2017-12-19T08:53:46.657Z,4.89
2017-12-19T09:03:46.620Z,5.05
2017-12-19T09:13:46.583Z,5.31
2017-12-19T09:23:46.506Z,5.49
2017-12-19T09:33:46.582Z,5.55
2017-12-19T09:43:46.654Z,5.6
2017-12-19T09:53:46.916Z,5.82
2017-12-19T10:03:46.817Z,6
2017-12-19T10:13:46.739Z,6.19
2017-12-19T10:23:46.627Z,6.3
2017-12-19T10:33:46.732Z,6.54
2017-12-19T10:43:46.755Z,6.61
2017-12-19T10:53:46.739Z,6.73
2017-12-19T11:03:46.675Z,6.89
2017-12-19T11:13:46.739Z,6.69
2017-12-19T11:23:46.669Z,6.89
2017-12-19T11:33:46.771Z,6.87
2017-12-19T11:43:46.722Z,7.15
2017-12-19T11:53:46.915Z,7.12
2017-12-19T12:03:46.740Z,7.08
2017-12-19T12:13:46.771Z,7.17
2017-12-19T12:23:46.763Z,7.12
2017-12-19T12:33:46.769Z,7.13
2017-12-19T12:43:46.813Z,7.41
2017-12-19T12:53:46.718Z,7.4
2017-12-19T13:03:46.788Z,7.41
2017-12-19T13:13:46.734Z,7.26
2017-12-19T13:23:46.835Z,7.4
2017-12-19T13:33:46.771Z,7.59
2017-12-19T13:43:46.827Z,7.75
2017-12-19T13:53:46.807Z,7.82
2017-12-19T14:03:46.853Z,7.81
2017-12-19T14:13:46.835Z,7.66
2017-12-19T14:23:46.906Z,7.59
2017-12-19T14:33:46.864Z,7.49
2017-12-19T14:43:46.842Z,7.44
2017-12-19T14:53:46.970Z,7.52
2017-12-19T15:03:47.466Z,7.53
2017-12-19T15:13:47.731Z,7.41
2017-12-19T15:23:46.909Z,7.35
2017-12-19T15:33:46.970Z,7.32
2017-12-19T15:43:46.923Z,7.37
2017-12-19T15:53:46.989Z,7.26
2017-12-19T16:03:46.954Z,7.16
2017-12-19T16:13:47.025Z,7.13
2017-12-19T16:23:46.955Z,7.07
2017-12-19T16:33:47.102Z,6.97
2017-12-19T16:43:46.946Z,7.07
2017-12-19T16:53:47.008Z,7.04
2017-12-19T17:03:46.966Z,7.09
2017-12-19T17:13:46.909Z,7.05
2017-12-19T17:23:46.990Z,7.02
2017-12-19T17:33:46.977Z,6.99
2017-12-19T17:43:46.989Z,6.98
2017-12-19T17:53:46.990Z,6.83
2017-12-19T18:03:47.037Z,7.01
2017-12-19T18:13:47.009Z,6.99
2017-12-19T18:23:47.076Z,6.89
2017-12-19T18:33:47.167Z,6.81
2017-12-19T18:43:47.133Z,6.8
2017-12-19T18:53:48.238Z,6.79
2017-12-19T19:03:47.142Z,6.62
2017-12-19T19:13:47.396Z,6.65
2017-12-19T19:23:47.513Z,6.72
2017-12-19T19:33:47.618Z,6.69
2017-12-19T19:43:47.073Z,6.69
2017-12-19T19:53:47.168Z,6.63
2017-12-19T20:03:47.388Z,6.8
2017-12-19T20:13:47.206Z,6.79
2017-12-19T20:23:48.762Z,6.68
2017-12-19T20:33:47.577Z,6.84
2017-12-19T20:43:48.072Z,6.76
2017-12-19T20:53:48.004Z,6.89
2017-12-19T21:03:47.508Z,6.81
2017-12-19T21:13:47.355Z,6.81
2017-12-19T21:23:47.298Z,6.73
2017-12-19T21:33:47.290Z,6.73
2017-12-19T21:43:50.638Z,6.8
2017-12-19T21:53:48.085Z,6.77
2017-12-19T22:03:48.567Z,6.65
2017-12-19T22:13:47.192Z,6.63
2017-12-19T22:23:47.262Z,6.81
2017-12-19T22:33:47.291Z,6.71
2017-12-19T22:43:47.278Z,6.71
2017-12-19T22:53:47.246Z,6.71
2017-12-19T23:03:47.293Z,6.79
2017-12-19T23:13:47.243Z,6.79
2017-12-19T23:23:47.352Z,6.72
2017-12-19T23:33:47.258Z,6.65
2017-12-19T23:43:47.362Z,6.61
2017-12-19T23:53:47.287Z,6.72
